createdAt,value
2022-11-22T00:00:21.618Z,99230.69
2022-11-22T00:02:48.297Z,99230.69
2022-11-22T00:05:14.673Z,99233.34
2022-11-22T00:07:41.094Z,99243.09
2022-11-22T00:10:09.521Z,99226.81
2022-11-22T00:12:36.217Z,99226.81
2022-11-22T00:15:03.001Z,99227.59
2022-11-22T00:17:30.895Z,99235.19
2022-11-22T00:19:57.219Z,99233.34
2022-11-22T00:22:23.517Z,99227.25
2022-11-22T00:24:51.390Z,99233.34
2022-11-22T00:27:18.182Z,99228.81
2022-11-22T00:29:44.670Z,99226.19
2022-11-22T00:32:11.050Z,99226.66
2022-11-22T00:34:37.431Z,99221.38
2022-11-22T00:37:03.732Z,99212.34
2022-11-22T00:39:30.232Z,99221.50
2022-11-22T00:41:56.687Z,99220.06
2022-11-22T00:44:22.985Z,99210.28
2022-11-22T00:46:49.493Z,99223.13
2022-11-22T00:49:15.814Z,99224.69
2022-11-22T00:51:42.107Z,99223.59
2022-11-22T00:54:08.524Z,99231.16
2022-11-22T00:56:35.622Z,99224.03
2022-11-22T00:59:01.914Z,99225.56
2022-11-22T01:01:29.139Z,99221.84
2022-11-22T01:03:55.569Z,99229.31
2022-11-22T01:06:21.866Z,99233.38
2022-11-22T01:08:48.254Z,99238.19
2022-11-22T01:11:17.114Z,99228.41
2022-11-22T01:13:43.403Z,99233.38
2022-11-22T01:16:10.982Z,99234.91
2022-11-22T01:18:37.680Z,99232.28
2022-11-22T01:21:05.871Z,99234.16
2022-11-22T01:23:32.833Z,99219.72
2022-11-22T01:25:59.365Z,99223.38
2022-11-22T01:28:25.809Z,99223.53
2022-11-22T01:30:53.122Z,99226.81
2022-11-22T01:33:19.871Z,99227.50
2022-11-22T01:35:46.333Z,99219.44
2022-11-22T01:38:12.743Z,99217.91
2022-11-22T01:40:39.325Z,99223.84
2022-11-22T01:43:16.221Z,99227.44
2022-11-22T01:45:45.529Z,99238.53
2022-11-22T01:48:11.756Z,99224.34
2022-11-22T01:50:42.930Z,99223.78
2022-11-22T01:53:33.775Z,99226.16
2022-11-22T01:56:03.109Z,99232.41
2022-11-22T01:58:32.734Z,99231.16
2022-11-22T02:01:00.296Z,99229.97
2022-11-22T02:03:29.417Z,99224.22
2022-11-22T02:05:56.225Z,99225.66
2022-11-22T02:08:41.882Z,99233.44
2022-11-22T02:11:10.853Z,99242.00
2022-11-22T02:13:41.755Z,99243.09
2022-11-22T02:16:10.273Z,99244.50
2022-11-22T02:18:37.877Z,99249.31
2022-11-22T02:21:05.359Z,99251.53
2022-11-22T02:23:38.155Z,99253.25
2022-11-22T02:26:04.792Z,99253.56
2022-11-22T02:28:34.658Z,99261.47
2022-11-22T02:31:01.175Z,99256.22
2022-11-22T02:33:27.515Z,99254.66
2022-11-22T02:35:54.825Z,99261.00
2022-11-22T02:38:26.844Z,99259.47
2022-11-22T02:41:03.514Z,99256.41
2022-11-22T02:43:35.894Z,99264.31
2022-11-22T02:46:11.795Z,99261.97
2022-11-22T02:48:44.571Z,99269.56
2022-11-22T02:51:11.741Z,99260.91
2022-11-22T02:53:38.046Z,99253.28
2022-11-22T02:56:04.533Z,99264.16
2022-11-22T02:58:30.841Z,99258.13
2022-11-22T03:00:57.196Z,99261.09
2022-11-22T03:03:23.533Z,99258.75
2022-11-22T03:05:49.833Z,99257.69
2022-11-22T03:08:16.131Z,99261.38
2022-11-22T03:10:42.430Z,99273.03
2022-11-22T03:13:08.766Z,99275.97
2022-11-22T03:15:35.129Z,99278.94
2022-11-22T03:18:03.703Z,99284.22
2022-11-22T03:20:32.150Z,99285.88
2022-11-22T03:23:00.808Z,99288.72
2022-11-22T03:25:27.137Z,99303.59
2022-11-22T03:27:53.487Z,99294.47
2022-11-22T03:30:19.819Z,99292.91
2022-11-22T03:32:46.254Z,99292.81
2022-11-22T03:35:12.954Z,99299.47
2022-11-22T03:37:39.249Z,99300.88
2022-11-22T03:40:06.242Z,99294.38
2022-11-22T03:42:32.618Z,99299.03
2022-11-22T03:44:58.910Z,99301.56
2022-11-22T03:47:25.215Z,99311.28
2022-11-22T03:49:51.574Z,99309.47
2022-11-22T03:52:17.866Z,99304.81
2022-11-22T03:54:44.162Z,99304.81
2022-11-22T03:57:10.474Z,99310.69
2022-11-22T03:59:36.779Z,99312.44
2022-11-22T04:02:03.122Z,99311.34
2022-11-22T04:04:29.546Z,99310.56
2022-11-22T04:06:55.868Z,99307.03
2022-11-22T04:09:22.233Z,99311.06
2022-11-22T04:11:48.653Z,99320.69
2022-11-22T04:14:33.361Z,99325.16
2022-11-22T04:16:59.736Z,99322.25
2022-11-22T04:19:26.042Z,99317.63
2022-11-22T04:21:52.354Z,99326.91
2022-11-22T04:24:36.998Z,99312.50
2022-11-22T04:27:03.318Z,99321.66
2022-11-22T04:29:29.931Z,99315.59
2022-11-22T04:32:14.818Z,99324.44
2022-11-22T04:34:41.190Z,99319.34
2022-11-22T04:37:07.704Z,99324.91
2022-11-22T04:39:34.175Z,99311.94
2022-11-22T04:42:18.806Z,99321.69
2022-11-22T04:44:46.057Z,99329.75
2022-11-22T04:47:53.984Z,99326.97
2022-11-22T04:50:38.672Z,99334.53
2022-11-22T04:53:04.998Z,99338.72
2022-11-22T04:55:31.605Z,99330.38
2022-11-22T04:58:00.224Z,99340.59
2022-11-22T05:00:31.439Z,99346.16
2022-11-22T05:02:58.314Z,99347.25
2022-11-22T05:05:25.950Z,99342.28
2022-11-22T05:07:52.364Z,99350.78
2022-11-22T05:10:24.416Z,99353.75
2022-11-22T05:12:52.729Z,99346.94
2022-11-22T05:15:19.050Z,99343.09
2022-11-22T05:17:45.345Z,99356.25
2022-11-22T05:20:11.745Z,99352.03
2022-11-22T05:22:56.470Z,99350.50
2022-11-22T05:25:25.688Z,99357.63
2022-11-22T05:27:55.329Z,99359.31
2022-11-22T05:30:21.627Z,99363.81
2022-11-22T05:32:47.953Z,99365.97
2022-11-22T05:35:14.386Z,99368.16
2022-11-22T05:37:40.676Z,99366.28
2022-11-22T05:40:07.821Z,99375.09
2022-11-22T05:42:34.354Z,99367.06
2022-11-22T05:45:00.639Z,99356.22
2022-11-22T05:47:26.929Z,99370.44
2022-11-22T05:49:53.228Z,99369.22
2022-11-22T05:52:19.522Z,99370.59
2022-11-22T05:54:45.829Z,99369.06
2022-11-22T05:57:12.123Z,99364.44
2022-11-22T05:59:43.881Z,99364.25
2022-11-22T06:02:10.366Z,99372.59
2022-11-22T06:04:37.290Z,99370.47
2022-11-22T06:07:08.490Z,99373.06
2022-11-22T06:09:36.055Z,99364.44
2022-11-22T06:12:02.368Z,99368.47
2022-11-22T06:14:28.650Z,99370.94
2022-11-22T06:16:55.314Z,99373.41
2022-11-22T06:19:21.605Z,99366.75
2022-11-22T06:21:47.904Z,99369.53
2022-11-22T06:24:14.374Z,99374.47
2022-11-22T06:26:40.802Z,99380.97
2022-11-22T06:29:07.591Z,99376.94
2022-11-22T06:31:34.195Z,99372.63
2022-11-22T06:34:00.843Z,99377.56
2022-11-22T06:36:30.390Z,99371.22
2022-11-22T06:38:57.638Z,99369.03
2022-11-22T06:41:26.461Z,99361.63
2022-11-22T06:43:54.154Z,99372.13
2022-11-22T06:46:23.042Z,99366.88
2022-11-22T06:48:49.779Z,99363.94
2022-11-22T06:51:20.319Z,99367.34
2022-11-22T06:53:49.060Z,99367.00
2022-11-22T06:56:21.095Z,99379.88
2022-11-22T06:58:49.185Z,99376.91
2022-11-22T07:01:18.965Z,99385.59
2022-11-22T07:03:45.910Z,99381.88
2022-11-22T07:06:13.634Z,99383.41
2022-11-22T07:08:40.851Z,99386.84
2022-11-22T07:11:10.644Z,99394.41
2022-11-22T07:13:37.315Z,99382.03
2022-11-22T07:16:06.363Z,99386.19
2022-11-22T07:18:33.065Z,99391.13
2022-11-22T07:21:13.171Z,99384.81
2022-11-22T07:23:41.746Z,99391.63
2022-11-22T07:26:08.842Z,99401.06
2022-11-22T07:28:35.378Z,99389.44
2022-11-22T07:31:03.203Z,99400.41
2022-11-22T07:33:29.656Z,99404.63
2022-11-22T07:35:56.944Z,99409.56
2022-11-22T07:38:23.237Z,99406.59
2022-11-22T07:40:49.752Z,99402.88
2022-11-22T07:43:16.093Z,99415.75
2022-11-22T07:45:42.418Z,99402.28
2022-11-22T07:48:08.733Z,99409.84
2022-11-22T07:50:35.062Z,99404.25
2022-11-22T07:53:01.344Z,99413.72
2022-11-22T07:55:27.816Z,99408.91
2022-11-22T07:57:54.419Z,99406.59
2022-11-22T08:00:21.023Z,99409.38
2022-11-22T08:02:47.518Z,99402.22
2022-11-22T08:05:14.072Z,99411.72
2022-11-22T08:07:46.581Z,99405.34
2022-11-22T08:10:13.534Z,99408.44
2022-11-22T08:12:39.971Z,99398.66
2022-11-22T08:15:07.456Z,99409.97
2022-11-22T08:17:33.814Z,99412.31
2022-11-22T08:20:00.177Z,99420.97
2022-11-22T08:22:26.474Z,99419.44
2022-11-22T08:24:52.843Z,99417.25
2022-11-22T08:27:19.200Z,99416.16
2022-11-22T08:29:45.540Z,99417.69
2022-11-22T08:32:11.844Z,99413.97
2022-11-22T08:34:39.228Z,99420.03
2022-11-22T08:37:09.092Z,99423.13
2022-11-22T08:39:35.414Z,99429.16
2022-11-22T08:42:01.853Z,99427.31
2022-11-22T08:44:28.157Z,99430.38
2022-11-22T08:46:54.467Z,99434.59
2022-11-22T08:49:20.784Z,99437.66
2022-11-22T08:51:47.101Z,99439.69
2022-11-22T08:54:15.254Z,99434.88
2022-11-22T08:56:41.788Z,99434.22
2022-11-22T08:59:08.168Z,99442.59
2022-11-22T09:01:35.962Z,99448.31
2022-11-22T09:04:05.720Z,99456.38
2022-11-22T09:12:05.185Z,99458.84
2022-11-22T09:14:32.848Z,99461.91
2022-11-22T09:17:06.117Z,99460.53
2022-11-22T09:19:35.427Z,99459.88
2022-11-22T09:22:01.755Z,99461.91
2022-11-22T09:24:28.053Z,99465.00
2022-11-22T09:26:54.533Z,99464.66
2022-11-22T09:29:22.120Z,99468.53
2022-11-22T09:31:48.586Z,99465.91
2022-11-22T09:34:14.902Z,99469.31
2022-11-22T09:36:41.298Z,99470.84
2022-11-22T09:39:08.690Z,99469.00
2022-11-22T09:42:07.278Z,99461.84
2022-11-22T09:44:55.877Z,99457.84
2022-11-22T09:47:46.915Z,99475.97
2022-11-22T09:50:19.470Z,99476.72
2022-11-22T09:53:40.166Z,99471.13
2022-11-22T09:56:15.105Z,99472.69
2022-11-22T09:58:55.705Z,99477.31
2022-11-22T10:01:48.519Z,99474.03
2022-11-22T10:04:22.480Z,99477.47
2022-11-22T10:07:19.091Z,99470.00
2022-11-22T10:10:07.994Z,99477.16
2022-11-22T10:12:41.890Z,99471.56
2022-11-22T10:15:29.219Z,99473.09
2022-11-22T10:18:11.490Z,99464.91
2022-11-22T10:20:45.692Z,99463.78
2022-11-22T10:23:22.040Z,99459.28
2022-11-22T10:26:01.635Z,99474.03
2022-11-22T10:28:35.829Z,99465.78
2022-11-22T10:31:15.147Z,99465.16
2022-11-22T10:34:06.509Z,99464.06
2022-11-22T10:36:59.959Z,99461.44
2022-11-22T10:39:51.201Z,99460.00
2022-11-22T10:42:33.511Z,99454.88
2022-11-22T10:45:06.102Z,99451.28
2022-11-22T10:47:48.768Z,99457.47
2022-11-22T10:50:29.128Z,99454.19
2022-11-22T10:53:17.493Z,99450.16
2022-11-22T10:55:52.857Z,99446.53
2022-11-22T10:58:49.129Z,99444.97
2022-11-22T11:01:27.815Z,99434.22
2022-11-22T11:03:59.153Z,99439.41
2022-11-22T11:06:56.873Z,99433.34
2022-11-22T11:10:09.679Z,99426.13
2022-11-22T11:12:45.488Z,99430.91
2022-11-22T11:15:23.676Z,99430.69
2022-11-22T11:17:58.566Z,99427.53
2022-11-22T11:20:35.231Z,99425.13
2022-11-22T11:23:17.055Z,99424.03
2022-11-22T11:25:45.917Z,99422.50
2022-11-22T11:28:30.104Z,99435.03
2022-11-22T11:31:11.430Z,99424.59
2022-11-22T11:33:40.966Z,99422.28
2022-11-22T11:36:11.711Z,99416.56
2022-11-22T11:38:50.933Z,99422.63
2022-11-22T11:41:36.271Z,99413.47
2022-11-22T11:44:28.606Z,99410.41
2022-11-22T11:46:56.670Z,99407.00
2022-11-22T11:49:29.462Z,99407.75
2022-11-22T11:52:04.432Z,99407.09
2022-11-22T11:54:49.867Z,99411.75
2022-11-22T11:57:29.362Z,99413.72
2022-11-22T12:00:00.088Z,99418.69
2022-11-22T12:02:42.048Z,99414.47
2022-11-22T12:05:15.409Z,99417.13
2022-11-22T12:07:47.358Z,99411.53
2022-11-22T12:10:33.814Z,99410.09
2022-11-22T12:13:16.921Z,99415.50
2022-11-22T12:16:18.998Z,99415.63
2022-11-22T12:18:57.436Z,99411.91
2022-11-22T12:21:24.452Z,99403.63
2022-11-22T12:24:13.476Z,99407.06
2022-11-22T12:26:44.291Z,99414.19
2022-11-22T12:29:13.530Z,99411.91
2022-11-22T12:31:45.355Z,99404.28
2022-11-22T12:34:38.028Z,99402.75
2022-11-22T12:37:17.077Z,99401.19
2022-11-22T12:39:48.105Z,99402.63
2022-11-22T12:42:46.884Z,99397.66
2022-11-22T12:45:34.715Z,99398.13
2022-11-22T12:48:06.010Z,99400.44
2022-11-22T12:51:12.383Z,99399.00
2022-11-22T12:53:43.193Z,99400.22
2022-11-22T12:56:35.334Z,99395.16
2022-11-22T12:59:40.220Z,99395.09
2022-11-22T13:02:40.642Z,99397.97
2022-11-22T13:05:26.598Z,99392.47
2022-11-22T13:08:05.045Z,99398.50
2022-11-22T13:10:42.074Z,99389.47
2022-11-22T13:13:36.437Z,99402.69
2022-11-22T13:16:09.946Z,99394.44
2022-11-22T13:18:46.471Z,99382.88
2022-11-22T13:21:39.706Z,99391.25
2022-11-22T13:24:13.921Z,99387.94
2022-11-22T13:27:07.388Z,99384.97
2022-11-22T13:29:36.331Z,99385.44
2022-11-22T13:32:06.676Z,99377.94
2022-11-22T13:34:36.117Z,99389.59
2022-11-22T13:37:29.628Z,99385.44
2022-11-22T13:39:56.319Z,99381.56
2022-11-22T13:42:26.658Z,99387.94
2022-11-22T13:44:58.078Z,99386.06
2022-11-22T13:47:24.302Z,99395.88
2022-11-22T13:49:53.385Z,99395.09
2022-11-22T13:52:19.627Z,99394.00
2022-11-22T13:54:52.969Z,99388.72
2022-11-22T13:57:34.596Z,99371.75
2022-11-22T14:00:26.989Z,99385.44
2022-11-22T14:03:10.967Z,99376.41
2022-11-22T14:05:42.056Z,99372.97
2022-11-22T14:08:37.207Z,99383.88
2022-11-22T14:11:13.326Z,99385.72
2022-11-22T14:13:57.624Z,99382.31
2022-11-22T14:16:40.164Z,99369.13
2022-11-22T14:19:41.944Z,99365.06
2022-11-22T14:22:33.842Z,99359.75
2022-11-22T14:25:38.522Z,99367.69
2022-11-22T14:28:40.954Z,99368.81
2022-11-22T14:31:23.031Z,99369.13
2022-11-22T14:34:13.863Z,99372.84
2022-11-22T14:36:40.642Z,99365.59
2022-11-22T14:39:44.327Z,99374.63
2022-11-22T14:42:35.369Z,99374.94
2022-11-22T14:45:28.051Z,99379.47
2022-11-22T14:48:14.300Z,99384.31
2022-11-22T14:50:45.551Z,99392.56
2022-11-22T14:53:30.559Z,99396.75
2022-11-22T14:56:12.087Z,99387.28
2022-11-22T14:58:46.538Z,99373.28
2022-11-22T15:01:32.417Z,99389.16
2022-11-22T15:09:10.451Z,99389.47
2022-11-22T15:09:14.437Z,99384.97
2022-11-22T15:10:20.923Z,99390.25
2022-11-22T15:13:09.650Z,99403.47
2022-11-22T15:59:41.758Z,99429.63
2022-11-22T16:02:16.019Z,99423.91
2022-11-22T16:06:07.737Z,99419.72
2022-11-22T16:07:46.849Z,99419.63
2022-11-22T16:10:23.786Z,99417.75
2022-11-22T16:12:51.472Z,99415.41
2022-11-22T16:15:28.445Z,99418.38
2022-11-22T16:18:06.770Z,99416.50
2022-11-22T16:20:34.618Z,99414.97
2022-11-22T16:23:09.658Z,99411.22
2022-11-22T16:25:37.550Z,99411.56
2022-11-22T16:28:21.401Z,99424.00
2022-11-22T16:30:47.917Z,99424.78
2022-11-22T16:33:14.273Z,99423.22
2022-11-22T16:35:40.569Z,99425.88
2022-11-22T16:38:07.465Z,99425.88
2022-11-22T16:40:41.235Z,99423.53
2022-11-22T16:43:22.170Z,99421.69
2022-11-22T16:45:49.760Z,99425.41
2022-11-22T16:48:31.696Z,99423.88
2022-11-22T16:51:03.448Z,99422.31
2022-11-22T16:53:37.315Z,99427.59
2022-11-22T16:56:03.831Z,99427.19
2022-11-22T16:58:31.098Z,99424.53
2022-11-22T17:00:57.617Z,99427.47
2022-11-22T17:03:29.567Z,99418.78
2022-11-22T17:05:56.135Z,99421.44
2022-11-22T17:08:22.536Z,99426.72
2022-11-22T17:10:50.627Z,99430.13
2022-11-22T17:13:28.006Z,99428.25
2022-11-22T17:15:56.131Z,99426.41
2022-11-22T17:18:22.810Z,99421.44
2022-11-22T17:20:49.602Z,99429.34
2022-11-22T17:23:21.373Z,99432.00
2022-11-22T17:25:47.720Z,99436.97
2022-11-22T17:28:14.066Z,99436.97
2022-11-22T17:30:40.626Z,99433.53
2022-11-22T17:33:06.975Z,99432.13
2022-11-22T17:35:37.197Z,99446.09
2022-11-22T17:38:04.775Z,99445.75
2022-11-22T17:40:31.318Z,99445.75
2022-11-22T17:42:57.656Z,99457.09
2022-11-22T17:45:24.289Z,99455.56
2022-11-22T17:47:51.519Z,99447.63
2022-11-22T17:50:18.032Z,99452.16
2022-11-22T17:52:44.385Z,99447.63
2022-11-22T17:55:14.365Z,99445.00
2022-11-22T17:57:41.164Z,99437.53
2022-11-22T18:00:08.767Z,99447.78
2022-11-22T18:02:36.501Z,99445.13
2022-11-22T18:05:05.767Z,99447.78
2022-11-22T18:07:32.225Z,99454.59
2022-11-22T18:09:58.623Z,99458.75
2022-11-22T18:12:24.917Z,99452.72
2022-11-22T18:14:51.238Z,99458.66
2022-11-22T18:17:17.526Z,99447.63
2022-11-22T18:19:43.882Z,99457.75
2022-11-22T18:22:10.445Z,99449.72
2022-11-22T18:24:36.734Z,99455.97
2022-11-22T18:27:03.087Z,99451.97
2022-11-22T18:29:44.843Z,99452.63
2022-11-22T18:32:11.541Z,99446.69
2022-11-22T18:34:38.045Z,99444.38
2022-11-22T18:37:05.092Z,99451.88
2022-11-22T18:39:35.458Z,99451.72
2022-11-22T18:42:03.659Z,99457.66
2022-11-22T18:44:30.011Z,99454.56
2022-11-22T18:46:56.356Z,99454.56
2022-11-22T18:49:22.775Z,99451.59
2022-11-22T18:51:49.078Z,99458.44
2022-11-22T18:54:15.950Z,99463.84
2022-11-22T18:56:42.426Z,99466.16
2022-11-22T18:59:12.243Z,99467.72
2022-11-22T19:01:39.271Z,99473.09
2022-11-22T19:04:05.681Z,99473.88
2022-11-22T19:06:32.096Z,99476.63
2022-11-22T19:08:58.605Z,99477.84
2022-11-22T19:11:25.701Z,99477.97
2022-11-22T19:13:52.179Z,99478.75
2022-11-22T19:16:21.761Z,99482.16
2022-11-22T19:18:49.251Z,99479.66
2022-11-22T19:21:20.075Z,99490.34
2022-11-22T19:23:47.165Z,99488.16
2022-11-22T19:26:22.298Z,99493.44
2022-11-22T19:28:50.033Z,99482.53
2022-11-22T19:31:18.786Z,99488.28
2022-11-22T19:33:45.811Z,99489.50
2022-11-22T19:36:22.793Z,99476.41
2022-11-22T19:38:50.702Z,99485.53
2022-11-22T19:41:20.102Z,99494.72
2022-11-22T19:43:47.771Z,99493.28
2022-11-22T19:46:14.899Z,99491.06
2022-11-22T19:48:46.989Z,99495.28
2022-11-22T19:51:15.278Z,99493.41
2022-11-22T19:53:42.133Z,99489.31
2022-11-22T19:56:14.286Z,99489.00
2022-11-22T19:58:41.421Z,99489.75
2022-11-22T20:01:13.146Z,99492.88
2022-11-22T20:03:41.581Z,99491.75
2022-11-22T20:06:11.223Z,99487.25
2022-11-22T20:08:38.396Z,99496.72
2022-11-22T20:11:12.913Z,99499.06
2022-11-22T20:13:42.579Z,99503.22
2022-11-22T20:16:10.844Z,99502.13
2022-11-22T20:18:37.700Z,99497.63
2022-11-22T20:21:06.077Z,99496.50
2022-11-22T20:23:33.442Z,99494.63
2022-11-22T20:26:11.803Z,99500.38
2022-11-22T20:28:39.547Z,99493.22
2022-11-22T20:31:11.555Z,99499.72
2022-11-22T20:33:40.949Z,99497.06
2022-11-22T20:36:10.553Z,99499.38
2022-11-22T20:38:40.725Z,99499.38
2022-11-22T20:41:08.188Z,99507.00
2022-11-22T20:43:36.301Z,99507.00
2022-11-22T20:46:07.574Z,99508.09
2022-11-22T20:48:35.302Z,99509.31
2022-11-22T20:51:04.324Z,99504.78
2022-11-22T20:53:30.703Z,99517.38
2022-11-22T20:55:57.329Z,99514.72
2022-11-22T20:58:25.972Z,99517.81
2022-11-22T21:00:53.255Z,99515.59
2022-11-22T21:03:20.073Z,99516.38
2022-11-22T21:05:46.929Z,99511.88
2022-11-22T21:08:13.260Z,99515.28
2022-11-22T21:10:39.566Z,99524.00
2022-11-22T21:13:05.874Z,99527.06
2022-11-22T21:15:32.292Z,99525.97
2022-11-22T21:18:23.680Z,99523.31
2022-11-22T21:20:46.030Z,99525.97
2022-11-22T21:23:12.593Z,99526.44
2022-11-22T21:25:38.881Z,99531.72
2022-11-22T21:28:06.294Z,99537.78
2022-11-22T21:30:32.593Z,99534.78
2022-11-22T21:32:58.909Z,99536.31
2022-11-22T21:35:25.372Z,99536.31
2022-11-22T21:37:54.074Z,99544.72
2022-11-22T21:40:20.382Z,99546.25
2022-11-22T21:42:46.703Z,99544.72
2022-11-22T21:45:13.108Z,99548.56
2022-11-22T21:47:39.442Z,99550.44
2022-11-22T21:50:11.423Z,99550.09
2022-11-22T21:52:38.231Z,99550.88
2022-11-22T21:55:04.876Z,99553.22
2022-11-22T21:57:31.196Z,99558.16
2022-11-22T21:59:57.489Z,99549.47
2022-11-22T22:02:23.851Z,99554.41
2022-11-22T22:04:50.934Z,99563.91
2022-11-22T22:07:44.799Z,99568.84
2022-11-22T22:10:07.644Z,99567.00
2022-11-22T22:12:34.111Z,99573.81
2022-11-22T22:15:02.217Z,99569.31
2022-11-22T22:17:28.619Z,99568.53
2022-11-22T22:19:54.934Z,99566.31
2022-11-22T22:22:21.234Z,99570.50
2022-11-22T22:24:47.585Z,99567.09
2022-11-22T22:27:16.099Z,99570.22
2022-11-22T22:29:42.494Z,99574.69
2022-11-22T22:32:10.684Z,99577.03
2022-11-22T22:34:37.513Z,99572.50
2022-11-22T22:37:03.820Z,99574.06
2022-11-22T22:39:30.868Z,99579.34
2022-11-22T22:41:57.306Z,99571.41
2022-11-22T22:44:23.605Z,99580.88
2022-11-22T22:46:51.277Z,99572.59
2022-11-22T22:49:17.627Z,99577.13
2022-11-22T22:51:43.924Z,99576.81
2022-11-22T22:54:10.461Z,99579.47
2022-11-22T22:56:36.762Z,99584.41
2022-11-22T22:59:05.058Z,99579.91
2022-11-22T23:01:32.944Z,99592.78
2022-11-22T23:04:02.859Z,99583.75
2022-11-22T23:06:32.665Z,99595.13
2022-11-22T23:08:59.665Z,99605.72
2022-11-22T23:11:48.713Z,99593.25
2022-11-22T23:14:18.502Z,99592.16
2022-11-22T23:16:44.898Z,99601.63
2022-11-22T23:19:11.929Z,99591.81
2022-11-22T23:21:38.524Z,99597.09
2022-11-22T23:24:05.333Z,99601.28
2022-11-22T23:26:31.941Z,99604.69
2022-11-22T23:28:59.092Z,99602.81
2022-11-22T23:31:25.565Z,99604.06
2022-11-22T23:33:51.885Z,99609.34
2022-11-22T23:36:20.784Z,99610.13
2022-11-22T23:38:47.335Z,99610.88
2022-11-22T23:41:14.471Z,99617.72
2022-11-22T23:43:41.802Z,99621.91
2022-11-22T23:46:15.911Z,99623.47
2022-11-22T23:48:43.950Z,99629.84
2022-11-22T23:51:10.947Z,99632.94
2022-11-22T23:53:37.840Z,99631.84
2022-11-22T23:56:08.778Z,99624.69
2022-11-22T23:58:35.524Z,99624.81
